createdAt,value
2023-02-14T00:01:11.692Z,102813.25
2023-02-14T00:06:14.332Z,102811.44
2023-02-14T00:11:16.257Z,102813.19
2023-02-14T00:16:18.139Z,102811.47
2023-02-14T00:21:20.355Z,102810.59
2023-02-14T00:26:22.139Z,102806.19
2023-02-14T00:31:24.325Z,102803.47
2023-02-14T00:36:26.728Z,102800.88
2023-02-14T00:41:28.514Z,102803.53
2023-02-14T00:46:30.443Z,102801.75
2023-02-14T00:51:32.803Z,102807.06
2023-02-14T00:56:34.617Z,102802.66
2023-02-14T01:01:36.446Z,102799.13
2023-02-14T01:06:38.328Z,102801.78
2023-02-14T01:11:40.511Z,102800.00
2023-02-14T01:16:42.562Z,102799.13
2023-02-14T01:21:44.533Z,102799.13
2023-02-14T01:26:46.641Z,102795.56
2023-02-14T01:31:49.582Z,102798.22
2023-02-14T01:36:51.398Z,102792.06
2023-02-14T01:41:56.012Z,102778.84
2023-02-14T01:47:01.042Z,102788.53
2023-02-14T01:52:08.616Z,102792.97
2023-02-14T01:57:15.136Z,102793.84
2023-02-14T02:02:23.983Z,102782.38
2023-02-14T02:07:27.787Z,102785.03
2023-02-14T02:12:31.032Z,102778.84
2023-02-14T02:18:03.676Z,102779.72
2023-02-14T02:23:20.364Z,102772.63
2023-02-14T02:28:59.787Z,102782.41
2023-02-14T02:34:21.621Z,102778.84
2023-02-14T02:39:53.875Z,102776.19
2023-02-14T02:45:06.810Z,102773.56
2023-02-14T02:50:42.602Z,102767.38
2023-02-14T02:56:22.384Z,102768.25
2023-02-14T03:01:29.807Z,102771.75
2023-02-14T03:06:33.066Z,102763.81
2023-02-14T03:11:36.662Z,102768.25
2023-02-14T03:16:44.745Z,102766.50
2023-02-14T03:22:00.839Z,102765.59
2023-02-14T03:27:14.690Z,102769.16
2023-02-14T03:33:06.968Z,102773.56
2023-02-14T03:38:22.304Z,102770.91
2023-02-14T03:43:35.694Z,102770.91
2023-02-14T03:48:40.345Z,102781.56
2023-02-14T03:53:46.287Z,102778.91
2023-02-14T03:58:51.551Z,102779.78
2023-02-14T04:03:55.776Z,102775.34
2023-02-14T04:08:57.791Z,102779.78
2023-02-14T04:14:00.152Z,102778.00
2023-02-14T04:19:20.888Z,102773.59
2023-02-14T04:24:23.011Z,102769.19
2023-02-14T04:29:24.918Z,102770.03
2023-02-14T04:34:26.810Z,102766.50
2023-02-14T04:39:28.812Z,102766.53
2023-02-14T04:44:30.834Z,102760.34
2023-02-14T04:49:32.825Z,102757.72
2023-02-14T04:54:34.623Z,102756.84
2023-02-14T04:59:36.385Z,102754.19
2023-02-14T05:04:38.448Z,102750.63
2023-02-14T05:09:40.398Z,102748.03
2023-02-14T05:14:42.292Z,102741.81
2023-02-14T05:19:44.566Z,102742.66
2023-02-14T05:24:46.524Z,102734.72
2023-02-14T05:29:48.299Z,102733.00
2023-02-14T05:34:50.088Z,102726.81
2023-02-14T05:39:51.971Z,102730.34
2023-02-14T05:44:53.795Z,102732.13
2023-02-14T05:49:55.814Z,102730.34
2023-02-14T05:54:57.855Z,102726.81
2023-02-14T05:59:59.956Z,102731.25
2023-02-14T06:05:01.910Z,102737.44
2023-02-14T06:10:03.946Z,102733.00
2023-02-14T06:15:06.466Z,102734.81
2023-02-14T06:20:12.074Z,102742.72
2023-02-14T06:25:14.285Z,102740.06
2023-02-14T06:30:17.448Z,102736.56
2023-02-14T06:35:19.530Z,102732.13
2023-02-14T06:40:22.095Z,102740.94
2023-02-14T06:45:24.139Z,102733.03
2023-02-14T06:50:26.215Z,102729.50
2023-02-14T06:55:28.227Z,102738.34
2023-02-14T07:00:30.739Z,102738.34
2023-02-14T07:05:33.270Z,102742.88
2023-02-14T07:10:35.565Z,102747.22
2023-02-14T07:15:37.484Z,102751.63
2023-02-14T07:20:39.550Z,102746.28
2023-02-14T07:25:41.350Z,102750.78
2023-02-14T07:30:43.374Z,102759.59
2023-02-14T07:35:45.261Z,102757.81
2023-02-14T07:40:47.191Z,102756.03
2023-02-14T07:45:49.003Z,102753.38
2023-02-14T07:50:50.945Z,102760.41
2023-02-14T07:55:52.984Z,102764.78
2023-02-14T08:00:55.114Z,102755.06
2023-02-14T08:05:59.774Z,102758.72
2023-02-14T08:11:02.129Z,102757.75
2023-02-14T08:16:13.001Z,102753.31
2023-02-14T08:21:17.831Z,102754.19
2023-02-14T08:26:20.274Z,102748.84
2023-02-14T08:31:35.087Z,102761.28
2023-02-14T08:36:37.845Z,102751.53
2023-02-14T08:41:39.886Z,102746.25
2023-02-14T08:46:41.976Z,102748.97
2023-02-14T08:51:44.059Z,102750.13
2023-02-14T08:56:46.240Z,102745.59
2023-02-14T09:01:48.078Z,102743.75
2023-02-14T09:06:49.916Z,102741.06
2023-02-14T09:11:51.931Z,102740.16
2023-02-14T09:16:53.910Z,102739.25
2023-02-14T09:21:55.754Z,102741.00
2023-02-14T09:26:58.224Z,102745.44
2023-02-14T09:32:02.164Z,102738.38
2023-02-14T09:37:22.730Z,102739.25
2023-02-14T09:42:50.716Z,102736.59
2023-02-14T09:48:15.457Z,102726.00
2023-02-14T09:53:27.900Z,102718.06
2023-02-14T09:58:40.168Z,102722.44
2023-02-14T10:04:03.373Z,102718.06
2023-02-14T10:09:36.495Z,102718.91
2023-02-14T10:14:41.244Z,102716.25
2023-02-14T10:20:06.250Z,102708.31
2023-02-14T10:25:39.772Z,102699.47
2023-02-14T10:30:51.613Z,102697.72
2023-02-14T10:36:39.210Z,102697.66
2023-02-14T10:42:02.792Z,102692.38
2023-02-14T10:47:04.663Z,102692.41
2023-02-14T10:52:25.589Z,102690.63
2023-02-14T10:57:41.183Z,102692.41
2023-02-14T11:02:50.547Z,102683.53
2023-02-14T11:07:52.991Z,102677.31
2023-02-14T11:12:55.137Z,102672.91
2023-02-14T11:18:18.127Z,102663.25
2023-02-14T11:23:21.604Z,102671.16
2023-02-14T11:28:24.058Z,102661.38
2023-02-14T11:33:52.199Z,102660.59
2023-02-14T11:39:08.472Z,102648.16
2023-02-14T11:44:19.380Z,102645.53
2023-02-14T11:49:30.620Z,102634.97
2023-02-14T11:54:39.506Z,102626.97
2023-02-14T11:59:47.151Z,102612.00
2023-02-14T12:04:53.232Z,102598.69
2023-02-14T12:10:13.606Z,102587.22
2023-02-14T12:15:37.999Z,102586.34
2023-02-14T12:21:26.386Z,102572.22
2023-02-14T12:26:33.668Z,102568.72
2023-02-14T12:31:36.200Z,102558.06
2023-02-14T12:37:05.277Z,102558.94
2023-02-14T12:42:13.739Z,102551.03
2023-02-14T12:47:18.488Z,102549.19
2023-02-14T12:52:39.626Z,102538.66
2023-02-14T12:57:47.241Z,102537.75
2023-02-14T13:03:07.125Z,102533.28
2023-02-14T13:08:47.241Z,102518.31
2023-02-14T13:14:19.558Z,102513.88
2023-02-14T13:19:39.948Z,102506.84
2023-02-14T13:24:44.928Z,102502.41
2023-02-14T13:29:54.829Z,102493.50
2023-02-14T13:34:58.927Z,102484.66
2023-02-14T13:40:06.577Z,102484.69
2023-02-14T13:45:40.642Z,102484.72
2023-02-14T13:51:06.548Z,102480.25
2023-02-14T13:56:17.306Z,102473.25
2023-02-14T14:02:17.439Z,102463.53
2023-02-14T14:07:30.677Z,102471.53
2023-02-14T14:12:35.330Z,102469.72
2023-02-14T14:17:39.585Z,102455.56
2023-02-14T14:22:50.578Z,102452.03
2023-02-14T14:27:53.887Z,102444.88
2023-02-14T14:32:55.889Z,102439.63
2023-02-14T14:38:01.602Z,102453.84
2023-02-14T14:43:14.304Z,102447.59
2023-02-14T14:48:47.090Z,102440.53
2023-02-14T14:53:52.934Z,102432.47
2023-02-14T14:58:55.158Z,102433.28
2023-02-14T15:04:12.065Z,102435.91
2023-02-14T15:09:22.368Z,102433.28
2023-02-14T15:14:27.419Z,102434.19
2023-02-14T15:19:41.549Z,102429.84
2023-02-14T15:24:44.145Z,102424.44
2023-02-14T15:30:04.085Z,102424.50
2023-02-14T15:35:07.531Z,102428.88
2023-02-14T15:40:18.061Z,102435.03
2023-02-14T15:45:24.399Z,102437.75
2023-02-14T15:50:32.827Z,102430.69
2023-02-14T15:55:36.289Z,102427.16
2023-02-14T16:00:38.503Z,102421.03
2023-02-14T16:05:47.294Z,102414.78
2023-02-14T16:11:10.078Z,102412.22
2023-02-14T16:16:14.279Z,102413.03
2023-02-14T16:21:33.496Z,102415.72
2023-02-14T16:26:38.359Z,102424.50
2023-02-14T16:32:01.208Z,102416.81
2023-02-14T16:37:09.758Z,102417.38
2023-02-14T16:42:18.973Z,102417.31
2023-02-14T16:47:21.344Z,102425.38
2023-02-14T16:52:26.954Z,102420.16
2023-02-14T16:57:33.967Z,102428.09
2023-02-14T17:02:36.218Z,102428.22
2023-02-14T17:07:39.313Z,102438.03
2023-02-14T17:12:45.295Z,102436.22
2023-02-14T17:17:49.751Z,102434.38
2023-02-14T17:22:52.560Z,102438.72
2023-02-14T17:27:56.408Z,102430.88
2023-02-14T17:32:58.911Z,102437.31
2023-02-14T17:38:00.817Z,102433.41
2023-02-14T17:43:02.921Z,102431.56
2023-02-14T17:48:05.066Z,102433.28
2023-02-14T17:53:07.154Z,102440.34
2023-02-14T17:58:09.148Z,102436.63
2023-02-14T18:03:11.174Z,102425.81
2023-02-14T18:08:13.043Z,102436.84
2023-02-14T18:13:15.170Z,102431.56
2023-02-14T18:18:17.220Z,102425.63
2023-02-14T18:23:19.226Z,102421.63
2023-02-14T18:28:21.563Z,102422.53
2023-02-14T18:33:25.453Z,102424.28
2023-02-14T18:38:27.497Z,102415.56
2023-02-14T18:43:29.418Z,102402.31
2023-02-14T18:48:32.497Z,102405.88
2023-02-14T18:53:35.518Z,102404.03
2023-02-14T18:58:37.473Z,102395.34
2023-02-14T19:03:40.587Z,102402.94
2023-02-14T19:08:43.081Z,102385.44
2023-02-14T19:13:46.338Z,102379.28
2023-02-14T19:18:50.095Z,102374.16
2023-02-14T19:23:56.568Z,102366.16
2023-02-14T19:29:00.586Z,102367.28
2023-02-14T19:34:03.350Z,102348.44
2023-02-14T19:39:05.825Z,102357.06
2023-02-14T19:44:09.728Z,102355.34
2023-02-14T19:49:14.827Z,102349.28
2023-02-14T19:54:17.116Z,102344.16
2023-02-14T19:59:23.028Z,102343.19
2023-02-14T20:04:27.938Z,102341.41
2023-02-14T20:09:30.133Z,102332.53
2023-02-14T20:14:47.104Z,102326.47
2023-02-14T20:19:53.073Z,102330.75
2023-02-14T20:24:55.268Z,102336.03
2023-02-14T20:29:57.357Z,102333.47
2023-02-14T20:34:59.371Z,102328.16
2023-02-14T20:40:01.283Z,102329.91
2023-02-14T20:45:03.087Z,102329.91
2023-02-14T20:50:05.673Z,102327.28
2023-02-14T20:55:07.706Z,102330.81
2023-02-14T21:00:10.895Z,102322.00
2023-02-14T21:05:18.809Z,102329.91
2023-02-14T21:10:20.999Z,102329.88
2023-02-14T21:15:22.868Z,102322.78
2023-02-14T21:20:24.871Z,102312.13
2023-02-14T21:25:27.142Z,102305.09
2023-02-14T21:30:33.127Z,102314.72
2023-02-14T21:35:36.741Z,102309.03
2023-02-14T21:40:38.950Z,102303.63
2023-02-14T21:45:53.711Z,102306.97
2023-02-14T21:50:55.702Z,102297.28
2023-02-14T21:56:07.005Z,102293.38
2023-02-14T22:01:15.237Z,102293.63
2023-02-14T22:06:17.538Z,102289.56
2023-02-14T22:11:19.482Z,102284.56
2023-02-14T22:16:22.846Z,102287.22
2023-02-14T22:21:26.947Z,102282.88
2023-02-14T22:26:31.417Z,102276.75
2023-02-14T22:31:36.546Z,102274.09
2023-02-14T22:36:38.440Z,102277.59
2023-02-14T22:41:40.349Z,102273.25
2023-02-14T22:46:42.276Z,102274.13
2023-02-14T22:51:44.590Z,102263.59
2023-02-14T22:56:48.876Z,102271.47
2023-02-14T23:01:52.387Z,102264.44
2023-02-14T23:06:54.383Z,102263.59
2023-02-14T23:11:56.353Z,102265.38
2023-02-14T23:17:17.088Z,102257.38
2023-02-14T23:22:20.824Z,102261.81
2023-02-14T23:27:25.580Z,102260.81
2023-02-14T23:32:28.075Z,102258.28
2023-02-14T23:37:29.902Z,102258.31
2023-02-14T23:42:31.692Z,102255.66
2023-02-14T23:47:34.520Z,102251.28
2023-02-14T23:52:38.553Z,102250.38
2023-02-14T23:57:40.798Z,102251.28
